createdAt,value
2022-08-10T00:00:22.683Z,100568.02
2022-08-10T00:01:26.686Z,100567.53
2022-08-10T00:02:30.667Z,100570.75
2022-08-10T00:03:35.757Z,100579.70
2022-08-10T00:04:39.292Z,100579.70
2022-08-10T00:05:43.850Z,100575.80
2022-08-10T00:06:48.513Z,100578.02
2022-08-10T00:07:52.966Z,100574.79
2022-08-10T00:08:56.890Z,100577.36
2022-08-10T00:10:00.739Z,100582.73
2022-08-10T00:11:04.735Z,100583.41
2022-08-10T00:12:13.698Z,100578.50
2022-08-10T00:38:17.266Z,100564.47
2022-08-10T00:39:21.033Z,100562.61
2022-08-10T00:40:37.132Z,100560.27
2022-08-10T00:41:31.614Z,100562.45
2022-08-10T00:42:36.280Z,100566.52
2022-08-10T00:43:41.322Z,100567.16
2022-08-10T00:44:51.326Z,100562.28
2022-08-10T00:45:59.191Z,100571.39
2022-08-10T00:47:01.909Z,100571.03
2022-08-10T00:48:09.474Z,100574.21
2022-08-10T00:49:14.598Z,100574.90
2022-08-10T00:50:19.783Z,100579.13
2022-08-10T00:51:47.961Z,100571.88
2022-08-10T00:52:37.879Z,100573.40
2022-08-10T00:53:43.598Z,100573.72
2022-08-10T00:54:49.111Z,100563.09
2022-08-10T00:57:12.372Z,100576.59
2022-08-10T00:57:17.886Z,100575.41
2022-08-10T00:58:16.484Z,100574.85
2022-08-10T00:59:21.970Z,100571.47
2022-08-10T01:00:26.731Z,100573.40
2022-08-10T01:02:10.864Z,100567.64
2022-08-10T01:02:51.893Z,100573.25
2022-08-10T01:04:57.891Z,100573.57
2022-08-10T01:05:09.791Z,100569.85
2022-08-10T01:06:37.062Z,100572.55
2022-08-10T01:07:55.329Z,100567.80
2022-08-10T01:09:20.561Z,100567.15
2022-08-10T01:10:40.990Z,100564.61
2022-08-10T01:12:38.066Z,100565.10
2022-08-10T01:13:26.123Z,100570.02
2022-08-10T01:14:57.456Z,100568.81
2022-08-10T01:16:14.805Z,100565.98
2022-08-10T01:17:22.031Z,100572.31
2022-08-10T01:18:53.322Z,100569.45
2022-08-10T01:20:06.747Z,100570.50
2022-08-10T01:21:53.966Z,100571.19
2022-08-10T01:23:22.904Z,100572.88
2022-08-10T01:26:10.772Z,100569.70
2022-08-10T01:27:33.094Z,100578.80
2022-08-10T01:29:07.061Z,100575.91
2022-08-10T01:30:15.672Z,100575.17
2022-08-10T01:31:22.299Z,100576.00
2022-08-10T01:32:36.443Z,100568.75
2022-08-10T01:34:02.958Z,100571.95
2022-08-10T01:35:21.761Z,100574.90
2022-08-10T01:36:39.545Z,100577.44
2022-08-10T01:37:52.358Z,100575.63
2022-08-10T01:38:53.857Z,100571.72
2022-08-10T01:40:04.103Z,100570.86
2022-08-10T01:41:11.625Z,100577.42
2022-08-10T01:42:18.817Z,100575.59
2022-08-10T01:43:26.691Z,100575.42
2022-08-10T01:44:41.259Z,100573.25
2022-08-10T01:45:49.152Z,100574.78
2022-08-10T01:46:57.912Z,100571.76
2022-08-10T01:48:23.399Z,100571.40
2022-08-10T01:49:30.014Z,100566.84
2022-08-10T01:50:58.989Z,100565.67
2022-08-10T01:51:55.690Z,100564.34
2022-08-10T01:53:06.478Z,100566.68
2022-08-10T01:54:13.308Z,100568.20
2022-08-10T01:55:20.331Z,100568.48
2022-08-10T01:56:28.758Z,100567.15
2022-08-10T01:57:33.273Z,100561.98
2022-08-10T01:58:39.346Z,100561.50
2022-08-10T01:59:58.783Z,100564.00
2022-08-10T02:00:57.657Z,100565.22
2022-08-10T02:02:06.846Z,100566.91
2022-08-10T02:03:13.736Z,100565.22
2022-08-10T02:04:20.283Z,100560.98
2022-08-10T02:05:27.051Z,100563.68
2022-08-10T02:06:33.211Z,100565.91
2022-08-10T02:07:39.110Z,100566.91
2022-08-10T02:08:46.383Z,100560.64
2022-08-10T02:09:57.119Z,100564.00
2022-08-10T02:11:02.156Z,100566.37
2022-08-10T02:12:10.249Z,100562.66
2022-08-10T02:13:17.404Z,100568.40
2022-08-10T02:14:26.232Z,100565.38
2022-08-10T02:15:38.063Z,100571.47
2022-08-10T02:16:46.513Z,100568.23
2022-08-10T02:17:58.443Z,100564.67
2022-08-10T02:19:02.143Z,100567.32
2022-08-10T02:20:18.949Z,100564.97
2022-08-10T02:21:28.538Z,100568.67
2022-08-10T02:22:38.058Z,100564.28
2022-08-10T02:23:42.971Z,100565.98
2022-08-10T02:24:50.404Z,100573.02
2022-08-10T02:25:56.063Z,100570.84
2022-08-10T02:26:59.794Z,100572.03
2022-08-10T02:28:06.849Z,100574.23
2022-08-10T02:29:13.983Z,100575.40
2022-08-10T02:55:18.188Z,100573.90
2022-08-10T02:56:35.312Z,100565.64
2022-08-10T02:58:15.276Z,100571.29
2022-08-10T02:58:49.994Z,100578.80
2022-08-10T02:59:57.018Z,100575.64
2022-08-10T03:01:05.401Z,100586.28
2022-08-10T03:02:20.230Z,100589.33
2022-08-10T03:03:30.627Z,100591.17
2022-08-10T03:04:55.742Z,100602.77
2022-08-10T03:05:44.343Z,100605.78
2022-08-10T03:06:57.612Z,100604.36
2022-08-10T03:08:04.924Z,100609.75
2022-08-10T03:09:12.121Z,100601.61
2022-08-10T03:12:34.839Z,100602.51
2022-08-10T03:13:06.317Z,100596.96
2022-08-10T03:14:11.700Z,100596.37
2022-08-10T03:15:20.503Z,100586.47
2022-08-10T03:16:33.098Z,100588.66
2022-08-10T03:17:36.046Z,100581.66
2022-08-10T03:18:40.297Z,100583.20
2022-08-10T03:20:34.223Z,100584.97
2022-08-10T03:20:56.163Z,100578.34
2022-08-10T03:22:00.371Z,100587.44
2022-08-10T03:23:07.733Z,100580.38
2022-08-10T03:24:30.229Z,100582.15
2022-08-10T03:25:29.130Z,100582.77
2022-08-10T03:26:37.418Z,100592.72
2022-08-10T03:27:43.288Z,100592.72
2022-08-10T03:30:32.404Z,100609.17
2022-08-10T03:31:06.037Z,100601.12
2022-08-10T03:32:16.634Z,100607.86
2022-08-10T03:33:27.258Z,100603.31
2022-08-10T03:34:33.862Z,100596.77
2022-08-10T03:35:37.921Z,100596.42
2022-08-10T03:36:45.253Z,100590.59
2022-08-10T03:37:49.349Z,100601.73
2022-08-10T03:38:55.119Z,100590.87
2022-08-10T03:39:58.860Z,100597.65
2022-08-10T03:41:05.156Z,100602.89
2022-08-10T03:42:14.401Z,100603.93
2022-08-10T03:43:21.008Z,100597.37
2022-08-10T03:44:28.257Z,100597.42
2022-08-10T03:45:54.518Z,100596.42
2022-08-10T03:46:47.486Z,100598.27
2022-08-10T03:47:55.896Z,100598.38
2022-08-10T03:49:04.777Z,100592.51
2022-08-10T03:50:45.392Z,100596.84
2022-08-10T03:51:20.116Z,100603.93
2022-08-10T03:52:24.120Z,100602.73
2022-08-10T03:54:05.888Z,100609.06
2022-08-10T03:54:35.004Z,100598.77
2022-08-10T03:56:26.864Z,100601.19
2022-08-10T03:56:52.348Z,100597.42
2022-08-10T03:57:56.220Z,100597.11
2022-08-10T04:00:13.632Z,100597.48
2022-08-10T04:01:18.601Z,100590.33
2022-08-10T04:02:44.858Z,100593.52
2022-08-10T04:03:29.342Z,100593.21
2022-08-10T04:04:35.450Z,100593.67
2022-08-10T04:05:42.925Z,100595.93
2022-08-10T04:06:45.856Z,100607.32
2022-08-10T04:07:52.783Z,100602.58
2022-08-10T04:08:56.417Z,100606.90
2022-08-10T04:11:15.250Z,100597.02
2022-08-10T04:12:18.832Z,100598.27
2022-08-10T04:13:23.954Z,100593.79
2022-08-10T04:14:38.293Z,100590.13
2022-08-10T04:15:35.506Z,100587.90
2022-08-10T04:16:42.281Z,100590.28
2022-08-10T04:18:00.186Z,100587.59
2022-08-10T04:18:55.661Z,100586.28
2022-08-10T04:20:01.306Z,100592.63
2022-08-10T04:21:17.401Z,100587.39
2022-08-10T04:22:27.867Z,100586.00
2022-08-10T04:23:34.713Z,100582.92
2022-08-10T04:24:43.813Z,100583.73
2022-08-10T04:25:50.881Z,100586.54
2022-08-10T04:26:55.941Z,100583.93
2022-08-10T04:28:03.261Z,100572.95
2022-08-10T04:29:07.208Z,100580.61
2022-08-10T04:30:11.633Z,100577.48
2022-08-10T04:31:17.644Z,100584.88
2022-08-10T04:32:23.751Z,100582.25
2022-08-10T04:33:29.537Z,100581.43
2022-08-10T04:34:35.476Z,100582.49
2022-08-10T04:35:41.319Z,100588.98
2022-08-10T04:36:50.475Z,100586.97
2022-08-10T04:37:55.599Z,100592.52
2022-08-10T04:39:01.570Z,100592.75
2022-08-10T04:40:28.815Z,100593.85
2022-08-10T04:41:16.020Z,100596.94
2022-08-10T04:42:20.296Z,100597.45
2022-08-10T04:43:24.697Z,100597.00
2022-08-10T04:44:28.194Z,100599.70
2022-08-10T04:45:48.647Z,100607.45
2022-08-10T04:46:56.437Z,100616.28
2022-08-10T04:47:57.282Z,100616.30
2022-08-10T04:48:59.762Z,100619.03
2022-08-10T04:49:57.084Z,100606.87
2022-08-10T04:51:01.912Z,100610.19
2022-08-10T04:52:07.731Z,100618.52
2022-08-10T04:54:29.898Z,100612.11
2022-08-10T04:55:34.592Z,100609.88
2022-08-10T04:56:39.983Z,100613.61
2022-08-10T04:57:43.316Z,100617.86
2022-08-10T04:58:48.712Z,100606.85
2022-08-10T04:59:54.293Z,100606.84
2022-08-10T05:00:58.196Z,100612.61
2022-08-10T05:02:27.951Z,100616.47
2022-08-10T05:03:08.839Z,100614.20
2022-08-10T05:04:36.201Z,100613.52
2022-08-10T05:05:19.979Z,100617.63
2022-08-10T05:06:25.519Z,100616.45
2022-08-10T05:07:29.229Z,100619.79
2022-08-10T05:08:33.861Z,100617.92
2022-08-10T05:10:01.359Z,100597.21
2022-08-10T05:10:49.354Z,100596.14
2022-08-10T05:11:52.857Z,100596.81
2022-08-10T05:12:56.397Z,100590.41
2022-08-10T05:13:59.975Z,100593.50
2022-08-10T05:15:07.614Z,100598.03
2022-08-10T05:16:12.101Z,100609.08
2022-08-10T05:17:17.556Z,100607.69
2022-08-10T05:18:28.248Z,100608.73
2022-08-10T05:20:04.006Z,100604.97
2022-08-10T05:20:39.525Z,100605.14
2022-08-10T05:22:04.662Z,100603.72
2022-08-10T05:22:53.868Z,100597.95
2022-08-10T05:23:57.624Z,100595.49
2022-08-10T05:25:01.697Z,100592.91
2022-08-10T05:26:05.903Z,100593.92
2022-08-10T05:27:10.058Z,100595.41
2022-08-10T05:28:17.350Z,100592.20
2022-08-10T05:29:21.210Z,100593.81
2022-08-10T05:30:27.101Z,100596.16
2022-08-10T05:31:34.440Z,100601.98
2022-08-10T05:32:57.164Z,100586.37
2022-08-10T05:33:44.047Z,100583.00
2022-08-10T05:34:47.092Z,100583.62
2022-08-10T05:35:58.034Z,100579.81
2022-08-10T05:36:58.592Z,100571.93
2022-08-10T05:38:09.115Z,100579.05
2022-08-10T05:39:12.143Z,100586.33
2022-08-10T05:40:19.052Z,100580.45
2022-08-10T05:41:26.653Z,100584.55
2022-08-10T05:42:31.783Z,100582.52
2022-08-10T05:43:35.113Z,100582.40
2022-08-10T05:44:40.581Z,100585.61
2022-08-10T05:46:16.810Z,100578.87
2022-08-10T05:46:51.369Z,100585.05
2022-08-10T05:48:56.965Z,100588.26
2022-08-10T05:49:02.884Z,100587.33
2022-08-10T05:50:07.850Z,100594.20
2022-08-10T05:51:14.795Z,100591.55
2022-08-10T05:52:21.607Z,100594.93
2022-08-10T05:54:03.023Z,100600.48
2022-08-10T05:54:29.820Z,100605.91
2022-08-10T05:55:34.109Z,100603.70
2022-08-10T05:56:55.787Z,100603.15
2022-08-10T05:57:47.279Z,100600.78
2022-08-10T05:58:50.993Z,100609.84
2022-08-10T06:00:32.782Z,100603.92
2022-08-10T06:01:16.722Z,100610.55
2022-08-10T06:02:33.316Z,100609.84
2022-08-10T06:03:36.430Z,100614.42
2022-08-10T06:04:44.058Z,100614.20
2022-08-10T06:05:48.994Z,100612.89
2022-08-10T06:08:19.649Z,100619.32
2022-08-10T06:09:25.761Z,100621.69
2022-08-10T06:10:35.242Z,100618.81
2022-08-10T06:12:26.978Z,100620.34
2022-08-10T06:12:55.309Z,100621.69
2022-08-10T06:14:19.277Z,100620.17
2022-08-10T06:15:52.121Z,100622.03
2022-08-10T06:16:34.887Z,100619.53
2022-08-10T06:17:39.150Z,100622.25
2022-08-10T06:18:47.005Z,100621.91
2022-08-10T06:19:51.016Z,100621.72
2022-08-10T06:20:57.497Z,100616.82
2022-08-10T06:22:03.481Z,100627.42
2022-08-10T06:23:06.378Z,100622.53
2022-08-10T06:24:11.714Z,100628.78
2022-08-10T06:26:23.721Z,100620.05
2022-08-10T06:27:34.448Z,100623.59
2022-08-10T06:28:38.650Z,100623.59
2022-08-10T06:29:45.497Z,100623.59
2022-08-10T06:30:53.583Z,100627.65
2022-08-10T06:32:00.358Z,100628.67
2022-08-10T06:33:06.958Z,100627.58
2022-08-10T06:34:13.213Z,100624.43
2022-08-10T06:35:19.400Z,100626.80
2022-08-10T06:36:27.853Z,100636.45
2022-08-10T06:37:34.245Z,100636.09
2022-08-10T06:38:41.367Z,100641.69
2022-08-10T06:39:46.729Z,100639.48
2022-08-10T06:40:57.187Z,100636.95
2022-08-10T06:42:17.970Z,100637.78
2022-08-10T06:43:27.447Z,100632.52
2022-08-10T06:44:35.257Z,100638.78
2022-08-10T06:46:07.851Z,100637.73
2022-08-10T06:47:00.313Z,100635.74
2022-08-10T06:48:16.665Z,100631.84
2022-08-10T06:49:23.990Z,100629.44
2022-08-10T06:50:55.866Z,100631.64
2022-08-10T06:51:57.229Z,100626.09
2022-08-10T06:53:02.478Z,100622.78
2022-08-10T06:54:12.667Z,100632.27
2022-08-10T06:55:21.952Z,100624.88
2022-08-10T06:56:36.575Z,100626.01
2022-08-10T06:57:36.974Z,100622.78
2022-08-10T06:58:48.738Z,100622.33
2022-08-10T06:59:54.199Z,100631.81
2022-08-10T07:01:04.116Z,100624.56
2022-08-10T07:02:14.808Z,100624.39
2022-08-10T07:03:25.250Z,100635.88
2022-08-10T07:04:49.186Z,100622.33
2022-08-10T07:05:56.046Z,100617.54
2022-08-10T07:07:04.077Z,100620.17
2022-08-10T07:08:10.774Z,100616.91
2022-08-10T07:09:18.660Z,100618.55
2022-08-10T07:10:26.331Z,100615.77
2022-08-10T07:11:34.227Z,100618.97
2022-08-10T07:12:39.835Z,100606.03
2022-08-10T07:14:16.504Z,100620.19
2022-08-10T07:14:53.364Z,100619.67
2022-08-10T07:16:00.604Z,100614.75
2022-08-10T07:17:07.289Z,100623.47
2022-08-10T07:18:16.840Z,100615.98
2022-08-10T07:19:27.741Z,100620.38
2022-08-10T07:20:35.910Z,100617.00
2022-08-10T07:21:42.940Z,100614.78
2022-08-10T07:23:52.855Z,100623.91
2022-08-10T07:24:00.838Z,100617.64
2022-08-10T07:25:08.282Z,100615.28
2022-08-10T07:26:14.448Z,100624.93
2022-08-10T07:27:21.035Z,100625.70
2022-08-10T07:28:25.497Z,100617.39
2022-08-10T07:29:54.003Z,100627.14
2022-08-10T07:30:41.378Z,100630.55
2022-08-10T07:31:57.266Z,100633.17
2022-08-10T07:32:56.775Z,100623.78
2022-08-10T07:34:03.191Z,100630.55
2022-08-10T07:35:11.026Z,100629.07
2022-08-10T07:36:20.232Z,100627.88
2022-08-10T07:37:25.948Z,100625.96
2022-08-10T07:38:32.260Z,100635.55
2022-08-10T07:40:02.852Z,100626.72
2022-08-10T07:40:51.274Z,100630.91
2022-08-10T07:41:57.746Z,100619.78
2022-08-10T07:43:03.519Z,100623.76
2022-08-10T07:44:19.697Z,100617.19
2022-08-10T07:45:23.817Z,100615.28
2022-08-10T07:46:30.210Z,100615.46
2022-08-10T07:47:54.407Z,100616.67
2022-08-10T07:49:19.132Z,100606.11
2022-08-10T07:50:20.083Z,100610.75
2022-08-10T07:51:24.250Z,100618.48
2022-08-10T07:52:30.561Z,100605.09
2022-08-10T07:53:41.864Z,100612.96
2022-08-10T07:54:49.710Z,100614.79
2022-08-10T07:56:07.331Z,100617.48
2022-08-10T07:57:05.309Z,100613.89
2022-08-10T07:58:11.836Z,100613.41
2022-08-10T07:59:19.179Z,100609.73
2022-08-10T08:00:27.233Z,100611.72
2022-08-10T08:01:33.718Z,100604.30
2022-08-10T08:02:44.133Z,100617.33
2022-08-10T08:04:10.696Z,100612.20
2022-08-10T08:05:07.526Z,100616.03
2022-08-10T08:06:13.486Z,100610.38
2022-08-10T08:07:21.518Z,100619.38
2022-08-10T08:08:28.795Z,100613.16
2022-08-10T08:09:37.120Z,100607.86
2022-08-10T08:10:45.842Z,100600.62
2022-08-10T08:11:51.522Z,100605.43
2022-08-10T08:12:58.643Z,100599.27
2022-08-10T08:14:04.229Z,100595.70
2022-08-10T08:16:14.253Z,100596.57
2022-08-10T08:16:22.367Z,100595.49
2022-08-10T08:17:35.457Z,100596.08
2022-08-10T08:18:38.055Z,100603.02
2022-08-10T08:19:55.615Z,100598.81
2022-08-10T08:20:57.046Z,100596.61
2022-08-10T08:24:07.957Z,100597.53
2022-08-10T08:24:10.315Z,100597.28
2022-08-10T08:24:31.443Z,100599.93
2022-08-10T08:25:34.022Z,100599.27
2022-08-10T08:26:39.538Z,100597.97
2022-08-10T08:27:49.244Z,100605.09
2022-08-10T08:28:56.136Z,100606.50
2022-08-10T08:30:01.349Z,100605.78
2022-08-10T08:31:07.557Z,100607.53
2022-08-10T08:32:16.395Z,100610.91
2022-08-10T08:33:41.885Z,100611.48
2022-08-10T08:34:38.064Z,100614.06
2022-08-10T08:35:43.710Z,100615.91
2022-08-10T08:36:54.907Z,100615.25
2022-08-10T08:38:29.547Z,100619.80
2022-08-10T08:39:04.179Z,100614.11
2022-08-10T08:40:25.465Z,100617.47
2022-08-10T08:41:44.829Z,100617.08
2022-08-10T08:43:04.314Z,100611.69
2022-08-10T08:44:23.144Z,100611.88
2022-08-10T08:46:03.370Z,100617.08
2022-08-10T08:48:03.766Z,100620.02
2022-08-10T08:48:44.780Z,100617.27
2022-08-10T08:50:18.751Z,100623.18
2022-08-10T08:52:09.357Z,100617.42
2022-08-10T08:52:58.489Z,100615.99
2022-08-10T08:54:41.091Z,100621.75
2022-08-10T08:56:05.581Z,100625.23
2022-08-10T08:57:14.690Z,100617.50
2022-08-10T08:58:36.552Z,100612.56
2022-08-10T08:59:56.407Z,100614.22
2022-08-10T09:01:38.178Z,100610.06
2022-08-10T09:02:54.885Z,100613.25
2022-08-10T09:04:19.792Z,100611.27
2022-08-10T09:05:26.899Z,100603.99
2022-08-10T09:08:09.126Z,100607.86
2022-08-10T09:09:41.960Z,100604.12
2022-08-10T09:10:58.082Z,100605.71
2022-08-10T09:12:07.231Z,100616.58
2022-08-10T09:13:32.977Z,100610.42
2022-08-10T09:14:54.996Z,100615.55
2022-08-10T09:16:33.832Z,100617.56
2022-08-10T09:19:36.160Z,100617.25
2022-08-10T09:20:49.672Z,100615.30
2022-08-10T09:22:17.598Z,100615.47
2022-08-10T09:24:02.155Z,100611.75
2022-08-10T09:24:46.149Z,100607.94
2022-08-10T09:25:56.444Z,100618.22
2022-08-10T09:27:04.022Z,100612.59
2022-08-10T09:28:11.750Z,100614.59
2022-08-10T09:29:29.136Z,100613.23
2022-08-10T09:31:22.058Z,100611.88
2022-08-10T09:36:14.870Z,100617.27
2022-08-10T09:36:24.975Z,100616.37
2022-08-10T09:36:25.986Z,100618.11
2022-08-10T09:36:27.000Z,100610.66
2022-08-10T09:37:39.498Z,100612.20
2022-08-10T09:39:02.443Z,100611.52
2022-08-10T09:41:00.940Z,100614.77
2022-08-10T09:41:52.423Z,100612.72
2022-08-10T09:43:25.230Z,100610.45
2022-08-10T09:44:33.652Z,100609.57
2022-08-10T09:45:53.040Z,100611.66
2022-08-10T09:48:00.782Z,100605.98
2022-08-10T09:49:01.803Z,100610.11
2022-08-10T09:50:14.811Z,100616.61
2022-08-10T09:51:48.449Z,100606.83
2022-08-10T09:54:32.109Z,100612.19
2022-08-10T09:56:17.139Z,100610.11
2022-08-10T09:57:44.576Z,100616.95
2022-08-10T09:59:47.314Z,100616.74
2022-08-10T10:00:16.282Z,100621.17
2022-08-10T10:02:00.625Z,100616.33
2022-08-10T10:02:44.780Z,100617.80
2022-08-10T10:03:57.119Z,100617.80
2022-08-10T10:05:51.221Z,100614.64
2022-08-10T10:07:00.942Z,100611.08
2022-08-10T10:08:08.601Z,100612.08
2022-08-10T10:09:39.732Z,100605.34
2022-08-10T10:10:56.969Z,100613.03
2022-08-10T10:12:10.151Z,100603.25
2022-08-10T10:13:50.007Z,100610.39
2022-08-10T10:15:24.701Z,100599.87
2022-08-10T10:18:12.439Z,100603.00
2022-08-10T10:21:01.546Z,100600.11
2022-08-10T10:22:28.253Z,100599.56
2022-08-10T10:24:21.842Z,100600.11
2022-08-10T10:25:19.941Z,100603.22
2022-08-10T10:26:40.766Z,100598.23
2022-08-10T10:27:48.687Z,100600.80
2022-08-10T10:29:58.502Z,100598.04
2022-08-10T10:30:32.945Z,100594.80
2022-08-10T10:32:02.079Z,100598.56
2022-08-10T10:33:27.826Z,100597.73
2022-08-10T10:34:45.778Z,100597.69
2022-08-10T10:35:54.196Z,100599.16
2022-08-10T10:37:00.896Z,100599.41
2022-08-10T10:38:08.273Z,100592.05
2022-08-10T10:39:19.482Z,100594.12
2022-08-10T10:40:25.666Z,100593.25
2022-08-10T10:41:56.354Z,100593.37
2022-08-10T10:43:29.078Z,100595.14
2022-08-10T10:44:49.755Z,100592.37
2022-08-10T10:47:39.364Z,100587.08
2022-08-10T10:48:55.408Z,100580.98
2022-08-10T10:50:30.570Z,100585.64
2022-08-10T10:51:40.468Z,100594.90
2022-08-10T10:53:06.929Z,100586.55
2022-08-10T10:55:33.730Z,100584.10
2022-08-10T10:56:49.960Z,100577.81
2022-08-10T10:58:01.131Z,100577.36
2022-08-10T10:59:53.719Z,100581.05
2022-08-10T11:00:40.139Z,100575.03
2022-08-10T11:01:58.149Z,100572.69
2022-08-10T11:03:25.371Z,100583.11
2022-08-10T11:04:35.508Z,100571.92
2022-08-10T11:05:47.707Z,100573.41
2022-08-10T11:08:29.272Z,100569.70
2022-08-10T11:10:05.211Z,100566.74
2022-08-10T11:10:52.697Z,100557.34
2022-08-10T11:12:01.956Z,100558.97
2022-08-10T11:14:25.316Z,100560.73
2022-08-10T11:14:42.296Z,100561.50
2022-08-10T11:16:00.292Z,100556.46
2022-08-10T11:17:31.713Z,100558.80
2022-08-10T11:18:49.484Z,100551.59
2022-08-10T11:20:13.093Z,100549.17
2022-08-10T11:21:23.182Z,100558.96
2022-08-10T11:22:37.291Z,100562.45
2022-08-10T11:24:44.439Z,100574.48
2022-08-10T11:26:56.708Z,100569.24
2022-08-10T11:28:19.014Z,100570.51
2022-08-10T11:29:43.889Z,100573.82
2022-08-10T11:30:52.133Z,100575.98
2022-08-10T11:32:04.810Z,100574.95
2022-08-10T11:33:32.940Z,100577.41
2022-08-10T11:35:11.379Z,100579.98
2022-08-10T11:36:38.204Z,100570.17
2022-08-10T11:38:30.962Z,100580.59
2022-08-10T11:39:19.706Z,100587.41
2022-08-10T11:40:31.071Z,100584.44
2022-08-10T11:43:17.544Z,100582.13
2022-08-10T11:44:42.505Z,100588.21
2022-08-10T11:45:52.477Z,100585.63
2022-08-10T11:47:28.369Z,100570.67
2022-08-10T11:48:52.871Z,100577.42
2022-08-10T11:50:17.682Z,100568.80
2022-08-10T11:51:28.157Z,100567.55
2022-08-10T11:52:40.816Z,100587.32
2022-08-10T11:54:04.646Z,100579.61
2022-08-10T11:55:31.132Z,100571.83
2022-08-10T11:56:48.467Z,100577.52
2022-08-10T11:57:59.106Z,100574.98
2022-08-10T11:59:22.671Z,100561.38
2022-08-10T12:00:32.493Z,100561.18
2022-08-10T12:01:36.310Z,100554.66
2022-08-10T12:02:48.857Z,100558.81
2022-08-10T12:03:56.371Z,100565.67
2022-08-10T12:05:14.538Z,100562.19
2022-08-10T12:06:53.656Z,100561.83
2022-08-10T12:10:05.278Z,100556.55
2022-08-10T12:10:05.551Z,100563.89
2022-08-10T12:10:07.578Z,100566.37
2022-08-10T12:11:00.929Z,100555.17
2022-08-10T12:12:09.947Z,100547.32
2022-08-10T12:13:26.321Z,100552.59
2022-08-10T12:14:33.917Z,100548.52
2022-08-10T12:15:47.651Z,100555.37
2022-08-10T12:17:03.404Z,100554.33
2022-08-10T12:18:13.731Z,100548.09
2022-08-10T12:20:02.132Z,100560.11
2022-08-10T12:20:54.623Z,100558.53
2022-08-10T12:22:05.780Z,100561.55
2022-08-10T12:23:23.551Z,100562.25
2022-08-10T12:24:31.358Z,100561.70
2022-08-10T12:25:56.348Z,100566.08
2022-08-10T12:27:06.050Z,100570.67
2022-08-10T12:28:49.490Z,100569.41
2022-08-10T12:29:47.603Z,100575.93
2022-08-10T12:30:55.420Z,100566.55
2022-08-10T12:32:27.927Z,100571.91
2022-08-10T12:34:02.534Z,100574.97
2022-08-10T12:35:17.268Z,100574.63
2022-08-10T12:36:37.487Z,100577.77
2022-08-10T12:38:03.894Z,100569.17
2022-08-10T12:39:18.640Z,100572.05
2022-08-10T12:40:35.537Z,100574.33
2022-08-10T12:41:45.791Z,100580.55
2022-08-10T12:44:05.579Z,100571.47
2022-08-10T12:44:19.877Z,100580.43
2022-08-10T12:45:39.550Z,100563.25
2022-08-10T12:46:54.077Z,100568.10
2022-08-10T12:48:10.585Z,100568.70
2022-08-10T12:49:24.778Z,100556.50
2022-08-10T12:50:44.428Z,100567.69
2022-08-10T12:51:57.852Z,100565.31
2022-08-10T12:53:17.758Z,100552.67
2022-08-10T12:54:32.108Z,100557.01
2022-08-10T12:55:34.825Z,100563.08
2022-08-10T12:56:48.542Z,100563.11
2022-08-10T12:57:58.002Z,100565.58
2022-08-10T12:59:07.782Z,100562.08
2022-08-10T13:00:17.601Z,100563.76
2022-08-10T13:01:21.054Z,100564.14
2022-08-10T13:02:29.687Z,100554.94
2022-08-10T13:04:20.662Z,100554.30
2022-08-10T13:04:44.211Z,100554.40
2022-08-10T13:06:01.991Z,100558.28
2022-08-10T13:06:56.319Z,100560.97
2022-08-10T13:08:26.388Z,100557.20
2022-08-10T13:09:30.758Z,100547.32
2022-08-10T13:10:38.703Z,100559.42
2022-08-10T13:12:44.946Z,100551.69
2022-08-10T13:13:00.104Z,100561.15
2022-08-10T13:14:24.256Z,100561.15
2022-08-10T13:15:49.471Z,100552.88
2022-08-10T13:16:45.617Z,100549.05
2022-08-10T13:42:46.199Z,100518.87
2022-08-10T13:43:56.413Z,100518.88
2022-08-10T13:45:09.252Z,100522.58
2022-08-10T13:46:22.641Z,100523.97
2022-08-10T13:47:32.179Z,100521.72
2022-08-10T13:48:40.610Z,100517.50
2022-08-10T13:49:57.193Z,100512.97
2022-08-10T13:51:04.160Z,100513.81
2022-08-10T13:53:28.789Z,100502.73
2022-08-10T13:54:35.534Z,100501.33
2022-08-10T13:55:55.544Z,100493.09
2022-08-10T13:56:56.684Z,100503.20
2022-08-10T13:58:04.366Z,100498.61
2022-08-10T13:59:11.671Z,100503.43
2022-08-10T14:00:36.851Z,100496.41
2022-08-10T14:01:31.355Z,100493.63
2022-08-10T14:02:50.234Z,100506.11
2022-08-10T14:03:55.037Z,100509.75
2022-08-10T14:04:59.801Z,100499.91
2022-08-10T14:06:05.085Z,100502.67
2022-08-10T14:07:12.473Z,100508.18
2022-08-10T14:08:19.644Z,100502.73
2022-08-10T14:09:29.556Z,100510.91
2022-08-10T14:11:09.902Z,100505.45
2022-08-10T14:11:53.251Z,100506.76
2022-08-10T14:13:01.036Z,100508.13
2022-08-10T14:15:24.078Z,100493.48
2022-08-10T14:16:32.646Z,100508.28
2022-08-10T14:17:44.155Z,100505.84
2022-08-10T14:18:47.446Z,100503.02
2022-08-10T14:19:59.270Z,100504.50
2022-08-10T14:21:05.107Z,100502.67
2022-08-10T14:22:08.310Z,100498.41
2022-08-10T14:23:15.947Z,100494.19
2022-08-10T14:24:25.060Z,100494.50
2022-08-10T14:25:29.396Z,100487.84
2022-08-10T14:26:33.294Z,100481.90
2022-08-10T14:28:03.071Z,100477.03
2022-08-10T14:28:57.732Z,100483.12
2022-08-10T14:30:03.225Z,100472.05
2022-08-10T14:31:09.066Z,100471.51
2022-08-10T14:32:16.539Z,100474.52
2022-08-10T14:33:22.618Z,100471.58
2022-08-10T14:36:15.553Z,100470.41
2022-08-10T14:36:19.385Z,100463.82
2022-08-10T14:36:50.750Z,100466.42
2022-08-10T14:38:00.734Z,100473.66
2022-08-10T14:39:07.989Z,100474.89
2022-08-10T14:40:16.060Z,100475.20
2022-08-10T14:42:48.075Z,100478.95
2022-08-10T14:43:54.351Z,100479.72
2022-08-10T14:45:01.026Z,100487.77
2022-08-10T14:46:08.960Z,100488.10
2022-08-10T14:47:53.929Z,100493.39
2022-08-10T14:48:33.162Z,100491.01
2022-08-10T14:49:57.370Z,100492.36
2022-08-10T14:50:55.008Z,100489.14
2022-08-10T14:52:04.456Z,100495.27
2022-08-10T14:53:14.104Z,100497.26
2022-08-10T14:54:19.836Z,100497.77
2022-08-10T14:55:25.373Z,100498.30
2022-08-10T14:56:33.870Z,100500.50
2022-08-10T14:58:17.091Z,100498.70
2022-08-10T14:59:06.111Z,100503.30
2022-08-10T15:00:26.237Z,100505.83
2022-08-10T15:01:19.215Z,100506.59
2022-08-10T15:02:38.823Z,100501.09
2022-08-10T15:04:01.287Z,100498.75
2022-08-10T15:04:44.708Z,100497.64
2022-08-10T15:05:49.262Z,100500.63
2022-08-10T15:07:02.556Z,100505.23
2022-08-10T15:08:06.524Z,100498.63
2022-08-10T15:09:19.907Z,100494.11
2022-08-10T15:10:25.537Z,100489.64
2022-08-10T15:12:13.772Z,100496.00
2022-08-10T15:12:45.180Z,100494.47
2022-08-10T15:14:12.338Z,100490.64
2022-08-10T15:15:01.419Z,100488.45
2022-08-10T15:16:13.024Z,100490.82
2022-08-10T15:17:16.462Z,100489.44